createdAt,value
2023-03-29T00:04:20.148Z,47.94
2023-03-29T00:14:25.697Z,48.63
2023-03-29T00:24:30.893Z,49.04
2023-03-29T00:34:36.050Z,49.26
2023-03-29T00:44:41.153Z,49.55
2023-03-29T00:54:46.299Z,49.79
2023-03-29T01:04:51.582Z,49.54
2023-03-29T01:14:56.962Z,49.46
2023-03-29T01:25:01.877Z,49.84
2023-03-29T01:35:07.375Z,49.81
2023-03-29T01:45:12.756Z,49.59
2023-03-29T01:55:18.440Z,49.67
2023-03-29T02:05:23.697Z,49.62
2023-03-29T02:15:29.051Z,49.09
2023-03-29T02:25:34.562Z,49.67
2023-03-29T02:35:39.672Z,49.46
2023-03-29T02:45:44.714Z,49.68
2023-03-29T02:55:50.334Z,49.73
2023-03-29T03:05:55.023Z,49.49
2023-03-29T03:16:00.244Z,49.78
2023-03-29T03:27:25.046Z,49.63
2023-03-29T03:37:29.340Z,49.60
2023-03-29T03:47:34.382Z,49.84
2023-03-29T03:57:39.538Z,49.48
2023-03-29T04:07:44.852Z,49.55
2023-03-29T04:17:50.169Z,49.63
2023-03-29T04:27:55.406Z,49.67
2023-03-29T04:38:00.772Z,49.74
2023-03-29T04:48:06.034Z,49.90
2023-03-29T04:58:11.697Z,49.84
2023-03-29T05:08:17.054Z,49.72
2023-03-29T05:18:22.173Z,49.71
2023-03-29T05:28:27.324Z,49.88
2023-03-29T05:38:32.122Z,49.93
2023-03-29T05:48:37.597Z,49.75
2023-03-29T05:58:42.951Z,49.87
2023-03-29T06:08:47.941Z,49.85
2023-03-29T06:18:53.287Z,49.84
2023-03-29T06:28:58.347Z,49.93
2023-03-29T06:39:03.654Z,50.27
2023-03-29T06:49:08.844Z,50.06
2023-03-29T06:59:14.296Z,49.75
2023-03-29T07:09:19.676Z,50.01
2023-03-29T07:19:24.778Z,50.05
2023-03-29T07:29:29.754Z,50.17
2023-03-29T07:39:35.071Z,50.07
2023-03-29T07:49:40.337Z,49.69
2023-03-29T07:59:45.473Z,49.80
2023-03-29T08:09:50.560Z,49.94
2023-03-29T08:19:56.056Z,50.13
2023-03-29T08:30:01.511Z,47.51
2023-03-29T08:40:06.996Z,49.17
2023-03-29T08:50:12.570Z,48.74
2023-03-29T09:00:17.856Z,49.03
2023-03-29T09:10:23.415Z,49.07
2023-03-29T09:20:28.530Z,49.81
2023-03-29T09:30:33.940Z,50.49
2023-03-29T09:40:38.826Z,50.84
2023-03-29T09:50:44.230Z,50.68
2023-03-29T10:00:49.454Z,51.25
2023-03-29T10:10:54.608Z,51.91
2023-03-29T10:20:59.842Z,50.78
2023-03-29T10:31:05.467Z,51.42
2023-03-29T10:41:10.737Z,49.12
2023-03-29T10:51:16.218Z,49.84
2023-03-29T11:01:21.776Z,51.65
2023-03-29T11:11:27.194Z,52.19
2023-03-29T11:21:32.758Z,52.54
2023-03-29T11:31:39.162Z,52.66
2023-03-29T11:41:44.662Z,52.67
2023-03-29T11:51:49.964Z,51.94
2023-03-29T12:01:55.244Z,52.98
2023-03-29T12:12:00.733Z,52.74
2023-03-29T12:22:06.136Z,52.62
2023-03-29T12:32:11.355Z,52.98
2023-03-29T12:42:16.792Z,54.18
2023-03-29T12:52:22.137Z,53.05
2023-03-29T13:02:27.671Z,52.84
2023-03-29T13:12:33.667Z,52.59
2023-03-29T13:22:38.967Z,52.52
2023-03-29T13:32:44.168Z,53.16
2023-03-29T13:42:49.712Z,52.94
2023-03-29T13:52:55.136Z,53.16
2023-03-29T14:03:00.724Z,52.59
2023-03-29T14:13:06.066Z,53.46
2023-03-29T14:23:12.749Z,53.65
2023-03-29T14:33:19.700Z,53.70
2023-03-29T14:43:24.953Z,53.51
2023-03-29T14:53:30.005Z,53.16
2023-03-29T15:03:35.283Z,53.27
2023-03-29T15:13:40.523Z,53.28
2023-03-29T15:23:45.706Z,53.02
2023-03-29T15:33:50.897Z,52.94
2023-03-29T15:43:56.223Z,52.77
2023-03-29T15:54:01.149Z,52.82
2023-03-29T16:04:06.647Z,52.70
2023-03-29T16:14:11.998Z,52.83
2023-03-29T16:24:17.421Z,52.93
2023-03-29T16:34:22.476Z,53.08
2023-03-29T16:44:27.807Z,52.74
2023-03-29T16:54:33.071Z,52.47
2023-03-29T17:04:38.929Z,51.99
2023-03-29T17:14:44.478Z,52.17
2023-03-29T17:24:49.801Z,52.46
2023-03-29T17:34:54.988Z,52.44
2023-03-29T17:45:00.484Z,52.23
2023-03-29T17:55:06.084Z,52.19
2023-03-29T18:05:11.406Z,52.10
2023-03-29T18:15:16.773Z,52.11
2023-03-29T18:25:22.468Z,51.90
2023-03-29T18:35:27.967Z,51.88
2023-03-29T18:45:33.270Z,52.16
2023-03-29T18:55:38.404Z,52.07
2023-03-29T19:05:43.848Z,51.59
2023-03-29T19:15:49.015Z,51.91
2023-03-29T19:25:54.583Z,51.96
2023-03-29T19:36:00.053Z,51.81
2023-03-29T19:46:05.701Z,51.52
2023-03-29T19:56:11.200Z,51.71
2023-03-29T20:06:17.172Z,51.21
2023-03-29T20:16:22.872Z,51.59
2023-03-29T20:26:28.417Z,51.30
2023-03-29T20:36:33.597Z,51.19
2023-03-29T20:46:38.893Z,51.12
2023-03-29T20:56:44.382Z,51.22
2023-03-29T21:06:49.370Z,51.43
2023-03-29T21:16:54.910Z,51.17
2023-03-29T21:27:00.362Z,50.95
2023-03-29T21:37:05.807Z,51.17
2023-03-29T21:47:11.111Z,51.21
2023-03-29T21:57:16.984Z,51.11
2023-03-29T22:07:22.854Z,51.08
2023-03-29T22:17:28.206Z,50.96
2023-03-29T22:27:33.659Z,50.64
2023-03-29T22:37:38.917Z,50.43
2023-03-29T22:47:44.274Z,50.21
2023-03-29T22:57:52.437Z,50.11
2023-03-29T23:07:57.944Z,50.60
2023-03-29T23:18:03.517Z,50.79
2023-03-29T23:28:09.191Z,50.74
2023-03-29T23:38:14.435Z,50.21
2023-03-29T23:48:19.745Z,50.20
2023-03-29T23:58:27.918Z,50.47
